createdAt,value
2017-11-12T00:00:20.298Z,10.20
2017-11-12T00:02:48.634Z,10.70
2017-11-12T00:05:16.998Z,9.07
2017-11-12T00:07:45.326Z,8.93
2017-11-12T00:10:13.637Z,9.13
2017-11-12T00:12:41.966Z,7.93
2017-11-12T00:15:10.290Z,9.10
2017-11-12T00:17:38.626Z,8.27
2017-11-12T00:20:06.954Z,7.53
2017-11-12T00:22:35.308Z,7.83
2017-11-12T00:25:03.655Z,7.60
2017-11-12T00:27:31.990Z,7.93
2017-11-12T00:30:00.301Z,7.33
2017-11-12T00:32:29.401Z,6.97
2017-11-12T00:34:58.480Z,7.00
2017-11-12T00:37:26.861Z,9.20
2017-11-12T00:39:55.952Z,8.80
2017-11-12T00:42:25.081Z,8.23
2017-11-12T00:44:53.380Z,8.03
2017-11-12T00:47:21.722Z,7.90
2017-11-12T00:49:50.816Z,8.27
2017-11-12T00:52:19.961Z,9.00
2017-11-12T00:54:48.289Z,9.70
2017-11-12T00:57:17.378Z,9.47
2017-11-12T00:59:45.713Z,9.57
2017-11-12T01:02:14.026Z,8.60
2017-11-12T01:04:42.392Z,11.20
2017-11-12T01:07:10.731Z,9.33
2017-11-12T01:09:39.069Z,9.10
2017-11-12T01:12:07.382Z,9.50
2017-11-12T01:14:35.729Z,9.40
2017-11-12T01:17:04.086Z,10.67
2017-11-12T01:19:32.421Z,12.00
2017-11-12T01:22:00.786Z,11.57
2017-11-12T01:24:29.913Z,11.47
2017-11-12T01:26:58.254Z,11.23
2017-11-12T01:29:26.607Z,9.33
2017-11-12T01:31:54.946Z,10.80
2017-11-12T01:34:23.279Z,11.97
2017-11-12T01:36:51.634Z,9.53
2017-11-12T01:39:20.001Z,9.97
2017-11-12T01:41:48.356Z,8.60
2017-11-12T01:44:16.677Z,9.70
2017-11-12T01:46:45.808Z,10.53
2017-11-12T01:49:14.135Z,9.80
2017-11-12T01:51:42.519Z,9.43
2017-11-12T01:54:10.859Z,12.30
2017-11-12T01:56:39.219Z,10.53
2017-11-12T01:59:08.311Z,11.43
2017-11-12T02:01:37.434Z,12.57
2017-11-12T02:04:05.766Z,11.20
2017-11-12T02:06:34.093Z,10.07
2017-11-12T02:09:04.396Z,10.10
2017-11-12T02:11:33.486Z,10.03
2017-11-12T02:14:02.593Z,10.30
2017-11-12T02:16:30.965Z,9.60
2017-11-12T02:18:59.335Z,10.80
2017-11-12T02:21:28.440Z,9.90
2017-11-12T02:23:57.563Z,9.40
2017-11-12T02:26:25.913Z,10.93
2017-11-12T02:28:54.288Z,10.93
2017-11-12T02:31:22.637Z,9.80
2017-11-12T02:33:51.050Z,12.43
2017-11-12T02:36:19.391Z,11.67
2017-11-12T02:38:47.757Z,11.40
2017-11-12T02:41:16.116Z,10.37
2017-11-12T02:43:44.486Z,10.50
2017-11-12T02:46:13.596Z,10.00
2017-11-12T02:48:41.969Z,11.13
2017-11-12T02:51:10.337Z,10.33
2017-11-12T02:53:38.686Z,10.00
2017-11-12T02:56:07.823Z,9.60
2017-11-12T02:58:36.158Z,13.27
2017-11-12T03:01:04.505Z,10.63
2017-11-12T03:03:32.850Z,9.80
2017-11-12T03:06:01.214Z,10.30
2017-11-12T03:08:30.312Z,10.77
2017-11-12T03:10:59.431Z,8.80
2017-11-12T03:13:27.841Z,11.80
2017-11-12T03:15:56.193Z,10.00
2017-11-12T03:18:24.512Z,9.40
2017-11-12T03:20:52.856Z,10.03
2017-11-12T03:23:22.259Z,9.70
2017-11-12T03:25:50.616Z,10.90
2017-11-12T03:28:18.957Z,9.00
2017-11-12T03:30:47.276Z,9.60
2017-11-12T03:33:15.642Z,11.10
2017-11-12T03:35:44.727Z,9.73
2017-11-12T03:38:13.958Z,10.20
2017-11-12T03:40:42.297Z,10.57
2017-11-12T03:43:10.633Z,10.20
2017-11-12T03:45:38.965Z,11.17
2017-11-12T03:48:07.318Z,9.83
2017-11-12T03:50:35.798Z,10.87
2017-11-12T03:53:04.152Z,10.30
2017-11-12T03:55:32.479Z,10.90
2017-11-12T03:58:05.775Z,10.43
2017-11-12T04:00:34.126Z,10.53
2017-11-12T04:03:08.190Z,10.40
2017-11-12T04:05:37.293Z,9.80
2017-11-12T04:08:06.409Z,11.57
2017-11-12T04:10:34.755Z,11.23
2017-11-12T04:13:03.094Z,11.00
2017-11-12T04:15:34.504Z,11.53
2017-11-12T04:18:02.847Z,11.43
2017-11-12T04:20:31.207Z,10.87
2017-11-12T04:22:59.574Z,11.03
2017-11-12T04:25:28.681Z,11.30
2017-11-12T04:27:57.048Z,9.77
2017-11-12T04:30:39.770Z,10.10
2017-11-12T04:33:08.091Z,10.30
2017-11-12T04:35:36.444Z,11.90
2017-11-12T04:38:04.787Z,12.03
2017-11-12T04:40:33.915Z,10.40
2017-11-12T04:43:02.244Z,12.10
2017-11-12T04:45:30.594Z,11.70
2017-11-12T04:47:59.694Z,11.20
2017-11-12T04:50:28.993Z,10.17
2017-11-12T04:52:58.114Z,11.33
2017-11-12T04:55:27.212Z,10.07
2017-11-12T04:57:56.321Z,9.53
2017-11-12T05:00:24.646Z,10.03
2017-11-12T05:02:53.016Z,10.10
2017-11-12T05:05:21.379Z,10.10
2017-11-12T05:07:49.735Z,11.23
2017-11-12T05:10:18.068Z,9.90
2017-11-12T05:12:46.410Z,11.17
2017-11-12T05:15:14.743Z,11.67
2017-11-12T05:17:43.879Z,13.30
2017-11-12T05:20:12.268Z,11.97
2017-11-12T05:22:40.611Z,12.03
2017-11-12T05:25:09.703Z,13.10
2017-11-12T05:27:38.085Z,13.57
2017-11-12T05:30:07.177Z,10.53
2017-11-12T05:32:36.300Z,11.90
2017-11-12T05:35:04.663Z,12.23
2017-11-12T05:37:33.788Z,11.10
2017-11-12T05:40:02.146Z,11.63
2017-11-12T05:42:30.494Z,11.90
2017-11-12T05:44:58.833Z,11.00
2017-11-12T05:47:27.186Z,11.20
2017-11-12T05:49:55.523Z,11.53
2017-11-12T05:52:23.888Z,11.43
2017-11-12T05:54:52.272Z,11.93
2017-11-12T05:57:20.633Z,14.40
2017-11-12T05:59:48.986Z,15.13
2017-11-12T06:02:17.349Z,12.33
2017-11-12T06:04:46.455Z,14.37
2017-11-12T06:07:14.803Z,15.97
2017-11-12T06:09:43.152Z,16.17
2017-11-12T06:12:11.538Z,13.10
2017-11-12T06:14:39.871Z,14.53
2017-11-12T06:17:08.983Z,14.90
2017-11-12T06:19:37.321Z,16.93
2017-11-12T06:22:05.666Z,13.10
2017-11-12T06:24:33.999Z,16.20
2017-11-12T06:27:03.115Z,14.80
2017-11-12T06:29:31.453Z,15.33
2017-11-12T06:31:59.780Z,14.57
2017-11-12T06:34:28.147Z,14.77
2017-11-12T06:36:56.495Z,15.33
2017-11-12T06:39:24.851Z,13.77
2017-11-12T06:41:53.182Z,14.20
2017-11-12T06:44:21.563Z,14.07
2017-11-12T06:46:50.803Z,12.60
2017-11-12T06:49:19.162Z,13.53
2017-11-12T06:51:47.498Z,15.93
2017-11-12T06:54:16.609Z,17.00
2017-11-12T06:56:44.947Z,27.27
2017-11-12T06:59:13.311Z,30.20
2017-11-12T07:01:41.651Z,20.70
2017-11-12T07:04:33.297Z,17.53
2017-11-12T07:07:01.671Z,16.43
2017-11-12T07:09:30.033Z,16.10
2017-11-12T07:11:59.103Z,19.23
2017-11-12T07:14:27.462Z,18.00
2017-11-12T07:16:55.794Z,19.60
2017-11-12T07:19:24.160Z,21.87
2017-11-12T07:21:53.257Z,20.60
2017-11-12T07:24:21.626Z,24.83
2017-11-12T07:26:50.727Z,25.83
2017-11-12T07:29:19.843Z,19.80
2017-11-12T07:31:48.175Z,19.10
2017-11-12T07:34:16.537Z,18.90
2017-11-12T07:36:44.872Z,17.17
2017-11-12T07:39:13.239Z,20.90
2017-11-12T07:41:42.335Z,19.97
2017-11-12T07:44:11.448Z,21.10
2017-11-12T07:46:39.784Z,26.53
2017-11-12T07:49:08.145Z,28.67
2017-11-12T07:51:36.475Z,26.20
2017-11-12T07:54:05.595Z,22.80
2017-11-12T07:56:33.942Z,20.27
2017-11-12T07:59:03.091Z,20.47
2017-11-12T08:01:31.430Z,21.20
2017-11-12T08:04:00.514Z,20.37
2017-11-12T08:06:29.638Z,19.87
2017-11-12T08:08:58.899Z,19.87
2017-11-12T08:11:27.261Z,18.47
2017-11-12T08:13:55.612Z,19.20
2017-11-12T08:16:23.965Z,19.93
2017-11-12T08:18:52.310Z,22.03
2017-11-12T08:21:20.664Z,20.23
2017-11-12T08:23:48.986Z,22.03
2017-11-12T08:26:18.122Z,19.80
2017-11-12T08:28:49.896Z,19.50
2017-11-12T08:31:18.249Z,22.40
2017-11-12T08:33:46.574Z,21.37
2017-11-12T08:36:14.942Z,27.03
2017-11-12T08:38:43.295Z,26.37
2017-11-12T08:41:11.710Z,26.57
2017-11-12T08:43:40.049Z,23.23
2017-11-12T08:46:17.796Z,22.07
2017-11-12T08:48:51.590Z,24.00
2017-11-12T08:51:23.666Z,23.80
2017-11-12T08:53:54.564Z,23.30
2017-11-12T08:56:24.395Z,26.07
2017-11-12T08:58:54.694Z,26.20
2017-11-12T09:01:25.231Z,24.23
2017-11-12T09:03:54.340Z,22.57
2017-11-12T09:06:22.739Z,23.47
2017-11-12T09:08:55.367Z,25.80
2017-11-12T09:11:24.708Z,24.40
2017-11-12T09:14:15.241Z,22.87
2017-11-12T09:16:49.191Z,22.27
2017-11-12T09:19:22.244Z,17.03
2017-11-12T09:21:50.561Z,21.70
2017-11-12T09:24:19.835Z,22.20
2017-11-12T09:26:51.643Z,26.53
2017-11-12T09:29:26.180Z,16.90
2017-11-12T09:31:57.389Z,21.77
2017-11-12T09:34:28.755Z,22.80
2017-11-12T09:36:58.040Z,20.90
2017-11-12T09:39:32.843Z,21.40
2017-11-12T09:42:07.842Z,23.40
2017-11-12T09:44:38.037Z,24.30
2017-11-12T09:47:13.172Z,21.60
2017-11-12T09:49:45.407Z,22.27
2017-11-12T09:52:15.087Z,18.77
2017-11-12T09:54:46.937Z,21.97
2017-11-12T09:57:24.130Z,19.90
2017-11-12T09:59:57.373Z,20.93
2017-11-12T10:02:28.331Z,21.80
2017-11-12T10:04:56.693Z,22.97
2017-11-12T10:07:37.430Z,14.50
2017-11-12T10:34:31.896Z,5.80
2017-11-12T10:37:02.239Z,6.40
2017-11-12T10:39:30.558Z,6.40
2017-11-12T10:41:59.762Z,5.47
2017-11-12T10:44:28.082Z,6.47
2017-11-12T10:46:56.401Z,7.23
2017-11-12T10:49:26.041Z,6.50
2017-11-12T10:52:00.318Z,7.27
2017-11-12T10:57:24.677Z,5.00
2017-11-12T11:00:01.264Z,4.30
2017-11-12T11:02:33.596Z,3.70
2017-11-12T11:05:01.959Z,5.33
2017-11-12T11:07:34.052Z,5.03
2017-11-12T11:10:05.121Z,5.40
2017-11-12T11:12:36.340Z,3.93
2017-11-12T11:15:12.112Z,4.43
2017-11-12T11:17:42.478Z,4.90
2017-11-12T11:20:15.805Z,6.73
2017-11-12T11:22:48.926Z,5.00
2017-11-12T11:25:29.726Z,5.33
2017-11-12T11:28:00.683Z,6.10
2017-11-12T11:30:32.414Z,7.33
2017-11-12T11:33:04.745Z,6.57
2017-11-12T11:35:33.548Z,6.73
2017-11-12T11:40:58.964Z,5.70
2017-11-12T11:43:28.889Z,4.90
2017-11-12T11:45:57.306Z,7.73
2017-11-12T11:48:28.480Z,4.83
2017-11-12T11:50:59.326Z,5.87
2017-11-12T11:56:50.996Z,6.60
2017-11-12T11:59:19.327Z,3.90
2017-11-12T12:01:56.369Z,3.53
2017-11-12T12:04:29.933Z,7.67
2017-11-12T12:07:13.426Z,5.80
2017-11-12T12:09:43.762Z,2.90
2017-11-12T12:12:19.130Z,4.63
2017-11-12T12:17:40.884Z,5.80
2017-11-12T12:20:16.358Z,7.27
2017-11-12T12:22:48.641Z,5.17
2017-11-12T12:25:24.292Z,5.30
2017-11-12T12:27:58.458Z,4.30
2017-11-12T12:36:08.426Z,5.53
2017-11-12T12:38:43.759Z,6.10
2017-11-12T12:41:15.527Z,6.37
2017-11-12T12:49:56.996Z,5.30
2017-11-12T12:52:25.324Z,6.10
2017-11-12T12:58:09.286Z,5.43
2017-11-12T13:00:42.479Z,6.10
2017-11-12T13:03:11.676Z,6.40
2017-11-12T13:05:49.624Z,6.27
2017-11-12T13:08:19.789Z,5.13
2017-11-12T13:10:50.913Z,5.83
2017-11-12T13:13:22.781Z,6.73
2017-11-12T13:15:54.579Z,5.23
2017-11-12T13:18:29.122Z,5.47
2017-11-12T13:21:04.488Z,5.27
2017-11-12T13:23:33.864Z,6.20
2017-11-12T13:26:03.041Z,5.93
2017-11-12T13:28:37.411Z,6.30
2017-11-12T13:31:08.604Z,8.47
2017-11-12T13:33:41.396Z,8.90
2017-11-12T13:36:12.002Z,9.50
2017-11-12T13:38:47.434Z,9.30
2017-11-12T13:41:18.359Z,8.50
2017-11-12T13:43:46.676Z,9.33
2017-11-12T13:46:15.048Z,7.30
2017-11-12T13:48:43.366Z,4.27
2017-11-12T13:51:11.724Z,4.73
2017-11-12T13:53:40.030Z,2.17
2017-11-12T13:56:09.136Z,3.07
2017-11-12T13:58:37.467Z,3.00
2017-11-12T14:01:05.812Z,2.53
2017-11-12T14:03:34.140Z,2.20
2017-11-12T14:06:03.323Z,2.40
2017-11-12T14:08:31.640Z,2.30
2017-11-12T14:11:00.834Z,2.90
2017-11-12T14:13:29.913Z,1.87
2017-11-12T14:15:58.244Z,3.20
2017-11-12T14:18:26.558Z,2.03
2017-11-12T14:20:54.903Z,2.30
2017-11-12T14:23:23.215Z,2.80
2017-11-12T14:25:51.554Z,2.63
2017-11-12T14:28:19.850Z,2.97
2017-11-12T14:30:48.176Z,4.40
2017-11-12T14:33:17.258Z,3.73
2017-11-12T14:35:45.594Z,3.00
2017-11-12T14:38:13.915Z,3.23
2017-11-12T14:40:42.262Z,3.10
2017-11-12T14:43:10.579Z,3.60
2017-11-12T14:45:39.682Z,4.87
2017-11-12T14:48:08.756Z,3.70
2017-11-12T14:50:37.084Z,2.37
2017-11-12T14:53:05.394Z,3.20
2017-11-12T14:55:33.727Z,3.80
2017-11-12T14:58:02.043Z,4.33
2017-11-12T15:00:30.385Z,6.67
2017-11-12T15:02:58.714Z,6.83
2017-11-12T15:05:28.982Z,10.80
2017-11-12T15:07:58.079Z,13.10
2017-11-12T15:10:27.347Z,5.77
2017-11-12T15:12:55.667Z,3.87
2017-11-12T15:15:23.992Z,3.33
2017-11-12T15:17:52.301Z,2.83
2017-11-12T15:20:21.409Z,3.90
2017-11-12T15:22:50.492Z,3.80
2017-11-12T15:25:19.600Z,2.23
2017-11-12T15:27:48.686Z,1.80
2017-11-12T15:30:17.815Z,3.43
2017-11-12T15:32:46.125Z,3.90
2017-11-12T15:35:14.438Z,5.20
2017-11-12T15:37:42.776Z,4.77
2017-11-12T15:40:11.100Z,5.07
2017-11-12T15:42:40.193Z,4.70
2017-11-12T15:45:09.276Z,3.03
2017-11-12T15:47:37.651Z,4.60
2017-11-12T15:50:05.963Z,4.27
2017-11-12T15:52:35.079Z,2.67
2017-11-12T15:55:03.513Z,3.00
2017-11-12T15:57:31.849Z,3.40
2017-11-12T16:00:00.159Z,4.23
2017-11-12T16:02:28.512Z,3.73
2017-11-12T16:04:56.858Z,4.17
2017-11-12T16:07:25.202Z,4.83
2017-11-12T16:09:53.574Z,5.87
2017-11-12T16:12:21.941Z,4.67
2017-11-12T16:14:50.288Z,5.57
2017-11-12T16:17:18.636Z,5.33
2017-11-12T16:19:50.470Z,8.77
2017-11-12T16:22:19.006Z,9.10
2017-11-12T16:24:47.362Z,9.60
2017-11-12T16:27:16.454Z,8.87
2017-11-12T16:29:45.567Z,9.83
2017-11-12T16:32:14.826Z,16.10
2017-11-12T16:34:43.160Z,8.00
2017-11-12T16:37:11.578Z,9.67
2017-11-12T16:39:39.989Z,18.77
2017-11-12T16:42:08.379Z,19.67
2017-11-12T16:44:37.489Z,17.70
2017-11-12T16:47:05.865Z,15.67
2017-11-12T16:49:34.199Z,27.53
2017-11-12T16:52:02.532Z,32.40
2017-11-12T16:54:30.874Z,13.90
2017-11-12T16:56:59.203Z,10.10
2017-11-12T16:59:28.311Z,8.33
2017-11-12T17:01:56.628Z,7.40
2017-11-12T17:04:24.961Z,6.67
2017-11-12T17:06:53.298Z,6.40
2017-11-12T17:09:22.386Z,6.23
2017-11-12T17:11:50.719Z,6.83
2017-11-12T17:14:19.058Z,8.40
2017-11-12T17:16:48.230Z,10.40
2017-11-12T17:19:16.539Z,9.90
2017-11-12T17:21:45.651Z,8.77
2017-11-12T17:24:13.983Z,7.13
2017-11-12T17:26:42.320Z,6.60
2017-11-12T17:29:11.403Z,7.00
2017-11-12T17:31:39.746Z,13.07
2017-11-12T17:34:08.839Z,16.33
2017-11-12T17:36:37.179Z,32.50
2017-11-12T17:39:05.494Z,24.30
2017-11-12T17:41:33.844Z,8.43
2017-11-12T17:44:02.176Z,7.17
2017-11-12T17:46:31.288Z,8.37
2017-11-12T17:48:59.616Z,6.30
2017-11-12T17:51:27.970Z,6.07
2017-11-12T17:53:56.304Z,7.20
2017-11-12T17:56:25.434Z,8.53
2017-11-12T17:58:54.510Z,8.00
2017-11-12T18:01:22.846Z,9.10
2017-11-12T18:03:51.163Z,9.00
2017-11-12T18:06:20.267Z,9.27
2017-11-12T18:08:48.594Z,10.67
2017-11-12T18:11:16.938Z,10.77
2017-11-12T18:13:45.264Z,9.40
2017-11-12T18:16:13.643Z,9.13
2017-11-12T18:18:41.962Z,11.77
2017-11-12T18:21:10.306Z,10.17
2017-11-12T18:23:38.631Z,11.20
2017-11-12T18:26:06.985Z,10.67
2017-11-12T18:28:36.067Z,10.40
2017-11-12T18:31:04.420Z,10.57
2017-11-12T18:33:32.749Z,10.40
2017-11-12T18:36:01.105Z,11.77
2017-11-12T18:38:30.189Z,10.03
2017-11-12T18:40:58.547Z,10.67
2017-11-12T18:43:26.888Z,11.30
2017-11-12T18:45:55.240Z,10.57
2017-11-12T18:48:24.325Z,10.60
2017-11-12T18:50:53.444Z,9.73
2017-11-12T18:53:21.776Z,10.03
2017-11-12T18:55:50.598Z,10.37
2017-11-12T18:58:20.167Z,11.53
2017-11-12T19:03:58.912Z,12.87
2017-11-12T19:06:32.794Z,11.67
2017-11-12T19:09:01.143Z,11.53
2017-11-12T19:11:30.259Z,11.63
2017-11-12T19:13:58.682Z,12.23
2017-11-12T19:16:27.030Z,11.60
2017-11-12T19:19:06.051Z,17.73
2017-11-12T19:21:35.158Z,12.73
2017-11-12T19:24:09.151Z,13.30
2017-11-12T19:29:40.370Z,12.83
2017-11-12T19:32:08.728Z,14.13
2017-11-12T19:34:37.042Z,14.93
2017-11-12T19:37:05.387Z,14.60
2017-11-12T19:39:33.717Z,14.93
2017-11-12T19:42:02.844Z,16.40
2017-11-12T19:44:31.173Z,14.20
2017-11-12T19:46:59.532Z,14.40
2017-11-12T19:49:27.853Z,13.17
2017-11-12T19:51:56.212Z,11.50
2017-11-12T19:54:25.409Z,13.57
2017-11-12T19:56:53.758Z,10.90
2017-11-12T19:59:22.088Z,13.23
2017-11-12T20:01:51.191Z,12.50
2017-11-12T20:04:19.552Z,12.77
2017-11-12T20:06:48.683Z,13.00
2017-11-12T20:09:17.000Z,11.83
2017-11-12T20:11:45.372Z,11.93
2017-11-12T20:14:13.693Z,10.70
2017-11-12T20:16:42.037Z,9.93
2017-11-12T20:19:10.367Z,7.50
2017-11-12T20:21:39.449Z,8.07
2017-11-12T20:24:08.584Z,7.80
2017-11-12T20:26:37.677Z,7.90
2017-11-12T20:29:06.005Z,7.60
2017-11-12T20:31:34.338Z,8.37
2017-11-12T20:34:02.678Z,6.10
2017-11-12T20:36:30.986Z,6.50
2017-11-12T20:38:59.328Z,7.67
2017-11-12T20:41:27.632Z,7.50
2017-11-12T20:43:55.963Z,7.10
2017-11-12T20:46:24.308Z,7.73
2017-11-12T20:48:52.626Z,7.00
2017-11-12T20:51:21.744Z,6.27
2017-11-12T20:53:50.055Z,5.90
2017-11-12T20:56:18.411Z,6.33
2017-11-12T20:58:47.501Z,7.17
2017-11-12T21:01:15.817Z,6.57
2017-11-12T21:03:44.621Z,5.83
2017-11-12T21:06:17.612Z,5.90
2017-11-12T21:08:45.962Z,6.10
2017-11-12T21:11:14.305Z,5.67
2017-11-12T21:13:42.641Z,6.50
2017-11-12T21:16:10.962Z,6.40
2017-11-12T21:18:39.307Z,5.50
2017-11-12T21:21:22.499Z,6.30
2017-11-12T21:23:51.339Z,6.87
2017-11-12T21:26:19.666Z,6.60
2017-11-12T21:28:53.572Z,7.47
2017-11-12T21:34:29.791Z,7.33
2017-11-12T21:37:00.575Z,8.20
2017-11-12T21:39:29.697Z,8.50
2017-11-12T21:41:58.040Z,8.10
2017-11-12T21:44:26.370Z,8.60
2017-11-12T21:46:56.290Z,10.20
2017-11-12T21:49:24.623Z,11.10
2017-11-12T21:51:53.751Z,11.00
2017-11-12T21:54:22.082Z,10.90
2017-11-12T21:56:50.472Z,11.40
2017-11-12T21:59:19.598Z,11.50
2017-11-12T22:01:47.970Z,11.17
2017-11-12T22:04:16.329Z,10.20
2017-11-12T22:06:45.469Z,12.00
2017-11-12T22:09:13.811Z,11.67
2017-11-12T22:11:42.953Z,11.57
2017-11-12T22:14:13.044Z,12.83
2017-11-12T22:16:41.396Z,12.17
2017-11-12T22:19:09.735Z,13.77
2017-11-12T22:21:38.076Z,13.17
2017-11-12T22:24:07.187Z,12.13
2017-11-12T22:26:35.498Z,12.93
2017-11-12T22:29:04.615Z,13.00
2017-11-12T22:31:34.444Z,13.60
2017-11-12T22:34:02.793Z,13.00
2017-11-12T22:36:31.118Z,12.87
2017-11-12T22:39:00.228Z,11.10
2017-11-12T22:41:28.563Z,12.37
2017-11-12T22:43:56.923Z,11.50
2017-11-12T22:46:25.479Z,11.90
2017-11-12T22:48:53.823Z,12.60
2017-11-12T22:51:22.928Z,12.03
2017-11-12T22:53:52.047Z,12.07
2017-11-12T22:56:20.376Z,12.07
2017-11-12T22:58:48.717Z,11.30
2017-11-12T23:01:17.050Z,12.43
2017-11-12T23:03:45.420Z,11.40
2017-11-12T23:06:13.739Z,11.60
2017-11-12T23:08:42.066Z,12.47
2017-11-12T23:11:10.387Z,11.97
2017-11-12T23:13:38.743Z,12.23
2017-11-12T23:16:07.076Z,12.00
2017-11-12T23:18:35.428Z,11.27
2017-11-12T23:21:03.762Z,12.10
2017-11-12T23:23:32.087Z,11.03
2017-11-12T23:26:00.415Z,10.20
2017-11-12T23:28:28.749Z,9.40
2017-11-12T23:30:57.086Z,10.03
2017-11-12T23:33:25.411Z,9.40
2017-11-12T23:35:53.744Z,9.77
2017-11-12T23:38:22.066Z,9.20
2017-11-12T23:40:50.409Z,10.07
2017-11-12T23:43:18.726Z,9.37
2017-11-12T23:45:47.060Z,9.83
2017-11-12T23:48:15.377Z,9.63
2017-11-12T23:50:43.716Z,11.17
2017-11-12T23:53:12.035Z,11.00
2017-11-12T23:55:40.395Z,10.20
2017-11-12T23:58:09.480Z,9.60
